sensor_id;sensor_type;location;lat;lon;timestamp;P1;durP1;ratioP1;P2;durP2;ratioP2
12356;SDS011;6243;51.244;6.774;2023-05-10T00:00:20;9.57;;;8.53;;
12356;SDS011;6243;51.244;6.774;2023-05-10T00:02:46;9.57;;;8.60;;
12356;SDS011;6243;51.244;6.774;2023-05-10T00:05:11;9.90;;;8.90;;
12356;SDS011;6243;51.244;6.774;2023-05-10T00:07:37;10.67;;;9.57;;
12356;SDS011;6243;51.244;6.774;2023-05-10T00:10:04;11.10;;;9.83;;
12356;SDS011;6243;51.244;6.774;2023-05-10T00:12:30;10.47;;;9.20;;
12356;SDS011;6243;51.244;6.774;2023-05-10T00:14:56;10.90;;;9.60;;
12356;SDS011;6243;51.244;6.774;2023-05-10T00:17:21;10.27;;;9.27;;
12356;SDS011;6243;51.244;6.774;2023-05-10T00:19:47;11.07;;;9.33;;
12356;SDS011;6243;51.244;6.774;2023-05-10T00:22:12;11.03;;;9.83;;
12356;SDS011;6243;51.244;6.774;2023-05-10T00:24:38;10.53;;;9.43;;
12356;SDS011;6243;51.244;6.774;2023-05-10T00:27:05;10.60;;;9.50;;
12356;SDS011;6243;51.244;6.774;2023-05-10T00:29:30;11.13;;;9.47;;
12356;SDS011;6243;51.244;6.774;2023-05-10T00:31:56;10.90;;;9.80;;
12356;SDS011;6243;51.244;6.774;2023-05-10T00:34:21;11.07;;;9.90;;
12356;SDS011;6243;51.244;6.774;2023-05-10T00:36:47;10.17;;;9.10;;
12356;SDS011;6243;51.244;6.774;2023-05-10T00:39:12;9.13;;;8.23;;
12356;SDS011;6243;51.244;6.774;2023-05-10T00:41:38;9.10;;;8.20;;
12356;SDS011;6243;51.244;6.774;2023-05-10T00:44:04;9.20;;;8.20;;
12356;SDS011;6243;51.244;6.774;2023-05-10T00:46:30;8.47;;;7.63;;
12356;SDS011;6243;51.244;6.774;2023-05-10T00:48:56;8.73;;;7.90;;
12356;SDS011;6243;51.244;6.774;2023-05-10T00:51:22;7.97;;;7.17;;
12356;SDS011;6243;51.244;6.774;2023-05-10T00:53:47;8.10;;;7.30;;
12356;SDS011;6243;51.244;6.774;2023-05-10T00:56:13;8.47;;;7.50;;
12356;SDS011;6243;51.244;6.774;2023-05-10T00:58:39;7.83;;;7.03;;
12356;SDS011;6243;51.244;6.774;2023-05-10T01:01:06;7.87;;;7.07;;
12356;SDS011;6243;51.244;6.774;2023-05-10T01:03:32;7.87;;;6.63;;
12356;SDS011;6243;51.244;6.774;2023-05-10T01:05:58;8.27;;;7.47;;
12356;SDS011;6243;51.244;6.774;2023-05-10T01:08:23;8.17;;;7.30;;
12356;SDS011;6243;51.244;6.774;2023-05-10T01:10:49;8.73;;;7.53;;
12356;SDS011;6243;51.244;6.774;2023-05-10T01:13:16;8.03;;;7.23;;
12356;SDS011;6243;51.244;6.774;2023-05-10T01:15:53;8.33;;;7.50;;
12356;SDS011;6243;51.244;6.774;2023-05-10T01:18:20;9.00;;;8.10;;
12356;SDS011;6243;51.244;6.774;2023-05-10T01:20:47;10.10;;;7.53;;
12356;SDS011;6243;51.244;6.774;2023-05-10T01:23:30;9.13;;;8.07;;
12356;SDS011;6243;51.244;6.774;2023-05-10T01:32:02;10.23;;;8.67;;
12356;SDS011;6243;51.244;6.774;2023-05-10T01:34:47;10.53;;;8.70;;
12356;SDS011;6243;51.244;6.774;2023-05-10T01:37:20;9.60;;;8.60;;
12356;SDS011;6243;51.244;6.774;2023-05-10T01:39:49;9.50;;;8.60;;
12356;SDS011;6243;51.244;6.774;2023-05-10T01:42:21;9.90;;;9.00;;
12356;SDS011;6243;51.244;6.774;2023-05-10T01:44:52;9.57;;;8.67;;
12356;SDS011;6243;51.244;6.774;2023-05-10T01:47:25;11.30;;;9.50;;
12356;SDS011;6243;51.244;6.774;2023-05-10T01:49:56;10.30;;;9.20;;
12356;SDS011;6243;51.244;6.774;2023-05-10T01:52:27;10.33;;;9.33;;
12356;SDS011;6243;51.244;6.774;2023-05-10T01:54:59;9.83;;;8.90;;
12356;SDS011;6243;51.244;6.774;2023-05-10T01:57:27;11.37;;;10.17;;
12356;SDS011;6243;51.244;6.774;2023-05-10T01:59:58;10.03;;;9.03;;
12356;SDS011;6243;51.244;6.774;2023-05-10T02:02:27;10.80;;;9.70;;
12356;SDS011;6243;51.244;6.774;2023-05-10T02:04:55;10.77;;;9.67;;
12356;SDS011;6243;51.244;6.774;2023-05-10T02:07:22;10.67;;;9.53;;
12356;SDS011;6243;51.244;6.774;2023-05-10T02:09:49;10.50;;;9.50;;
12356;SDS011;6243;51.244;6.774;2023-05-10T02:12:15;9.57;;;8.47;;
12356;SDS011;6243;51.244;6.774;2023-05-10T02:14:41;9.70;;;8.70;;
12356;SDS011;6243;51.244;6.774;2023-05-10T02:17:07;10.47;;;9.07;;
12356;SDS011;6243;51.244;6.774;2023-05-10T02:19:36;8.70;;;7.83;;
12356;SDS011;6243;51.244;6.774;2023-05-10T02:22:04;8.13;;;7.33;;
12356;SDS011;6243;51.244;6.774;2023-05-10T02:24:31;8.70;;;7.80;;
12356;SDS011;6243;51.244;6.774;2023-05-10T02:26:58;10.40;;;8.73;;
12356;SDS011;6243;51.244;6.774;2023-05-10T02:29:26;8.37;;;7.07;;
12356;SDS011;6243;51.244;6.774;2023-05-10T02:31:54;7.67;;;6.90;;
12356;SDS011;6243;51.244;6.774;2023-05-10T02:34:21;7.73;;;6.93;;
12356;SDS011;6243;51.244;6.774;2023-05-10T02:36:49;7.97;;;7.17;;
12356;SDS011;6243;51.244;6.774;2023-05-10T02:39:16;7.47;;;6.77;;
12356;SDS011;6243;51.244;6.774;2023-05-10T02:41:44;7.67;;;6.87;;
12356;SDS011;6243;51.244;6.774;2023-05-10T02:44:11;7.73;;;6.80;;
12356;SDS011;6243;51.244;6.774;2023-05-10T02:46:39;8.53;;;7.63;;
12356;SDS011;6243;51.244;6.774;2023-05-10T02:49:04;8.63;;;7.00;;
12356;SDS011;6243;51.244;6.774;2023-05-10T02:51:31;8.17;;;7.30;;
12356;SDS011;6243;51.244;6.774;2023-05-10T02:54:02;7.33;;;6.57;;
12356;SDS011;6243;51.244;6.774;2023-05-10T02:56:35;7.63;;;6.83;;
12356;SDS011;6243;51.244;6.774;2023-05-10T02:59:05;8.60;;;7.40;;
12356;SDS011;6243;51.244;6.774;2023-05-10T03:01:31;8.20;;;7.27;;
12356;SDS011;6243;51.244;6.774;2023-05-10T03:03:57;7.90;;;7.20;;
12356;SDS011;6243;51.244;6.774;2023-05-10T03:06:22;8.27;;;7.47;;
12356;SDS011;6243;51.244;6.774;2023-05-10T03:08:48;8.73;;;7.37;;
12356;SDS011;6243;51.244;6.774;2023-05-10T03:11:21;9.10;;;7.30;;
12356;SDS011;6243;51.244;6.774;2023-05-10T03:13:56;9.37;;;7.60;;
12356;SDS011;6243;51.244;6.774;2023-05-10T03:16:35;8.77;;;7.87;;
12356;SDS011;6243;51.244;6.774;2023-05-10T03:19:11;7.20;;;6.50;;
12356;SDS011;6243;51.244;6.774;2023-05-10T03:21:41;7.70;;;6.90;;
12356;SDS011;6243;51.244;6.774;2023-05-10T03:24:10;7.50;;;6.70;;
12356;SDS011;6243;51.244;6.774;2023-05-10T03:26:39;8.70;;;6.90;;
12356;SDS011;6243;51.244;6.774;2023-05-10T03:29:06;6.80;;;6.10;;
12356;SDS011;6243;51.244;6.774;2023-05-10T03:31:33;7.70;;;6.63;;
12356;SDS011;6243;51.244;6.774;2023-05-10T03:33:59;7.73;;;6.93;;
12356;SDS011;6243;51.244;6.774;2023-05-10T03:36:24;6.97;;;6.33;;
12356;SDS011;6243;51.244;6.774;2023-05-10T03:38:50;7.23;;;6.23;;
12356;SDS011;6243;51.244;6.774;2023-05-10T03:41:15;9.50;;;7.20;;
12356;SDS011;6243;51.244;6.774;2023-05-10T03:43:42;8.83;;;7.10;;
12356;SDS011;6243;51.244;6.774;2023-05-10T03:46:08;8.67;;;7.73;;
12356;SDS011;6243;51.244;6.774;2023-05-10T03:48:33;9.60;;;7.33;;
12356;SDS011;6243;51.244;6.774;2023-05-10T03:50:59;9.07;;;7.33;;
12356;SDS011;6243;51.244;6.774;2023-05-10T03:53:24;10.67;;;8.30;;
12356;SDS011;6243;51.244;6.774;2023-05-10T03:55:50;9.53;;;8.53;;
12356;SDS011;6243;51.244;6.774;2023-05-10T03:58:15;9.77;;;8.10;;
12356;SDS011;6243;51.244;6.774;2023-05-10T04:00:42;8.97;;;7.80;;
12356;SDS011;6243;51.244;6.774;2023-05-10T04:03:08;8.03;;;7.10;;
12356;SDS011;6243;51.244;6.774;2023-05-10T04:05:33;11.17;;;9.07;;
12356;SDS011;6243;51.244;6.774;2023-05-10T04:07:59;10.50;;;8.23;;
12356;SDS011;6243;51.244;6.774;2023-05-10T04:10:24;10.17;;;8.40;;
12356;SDS011;6243;51.244;6.774;2023-05-10T04:12:50;9.43;;;8.40;;
12356;SDS011;6243;51.244;6.774;2023-05-10T04:15:15;10.07;;;9.00;;
12356;SDS011;6243;51.244;6.774;2023-05-10T04:17:42;10.23;;;9.17;;
12356;SDS011;6243;51.244;6.774;2023-05-10T04:20:08;9.20;;;8.17;;
12356;SDS011;6243;51.244;6.774;2023-05-10T04:22:35;11.17;;;9.50;;
12356;SDS011;6243;51.244;6.774;2023-05-10T04:25:00;13.73;;;10.50;;
12356;SDS011;6243;51.244;6.774;2023-05-10T04:27:26;12.13;;;10.23;;
12356;SDS011;6243;51.244;6.774;2023-05-10T04:29:51;12.97;;;10.80;;
12356;SDS011;6243;51.244;6.774;2023-05-10T04:32:16;11.93;;;10.60;;
12356;SDS011;6243;51.244;6.774;2023-05-10T04:34:44;12.97;;;10.80;;
12356;SDS011;6243;51.244;6.774;2023-05-10T04:37:09;12.93;;;11.17;;
12356;SDS011;6243;51.244;6.774;2023-05-10T04:39:35;13.83;;;11.13;;
12356;SDS011;6243;51.244;6.774;2023-05-10T04:42:00;15.93;;;12.00;;
12356;SDS011;6243;51.244;6.774;2023-05-10T04:44:26;15.17;;;12.50;;
12356;SDS011;6243;51.244;6.774;2023-05-10T04:46:51;15.03;;;12.57;;
12356;SDS011;6243;51.244;6.774;2023-05-10T04:49:17;15.53;;;12.77;;
12356;SDS011;6243;51.244;6.774;2023-05-10T04:51:44;18.10;;;14.20;;
12356;SDS011;6243;51.244;6.774;2023-05-10T04:54:09;21.53;;;14.43;;
12356;SDS011;6243;51.244;6.774;2023-05-10T04:56:35;16.67;;;14.23;;
12356;SDS011;6243;51.244;6.774;2023-05-10T04:59:00;17.40;;;14.27;;
12356;SDS011;6243;51.244;6.774;2023-05-10T05:01:26;19.53;;;15.03;;
12356;SDS011;6243;51.244;6.774;2023-05-10T05:03:51;19.63;;;15.87;;
12356;SDS011;6243;51.244;6.774;2023-05-10T05:06:17;19.33;;;14.43;;
12356;SDS011;6243;51.244;6.774;2023-05-10T05:08:44;21.47;;;15.37;;
12356;SDS011;6243;51.244;6.774;2023-05-10T05:11:09;19.10;;;14.87;;
12356;SDS011;6243;51.244;6.774;2023-05-10T05:13:35;20.13;;;14.67;;
12356;SDS011;6243;51.244;6.774;2023-05-10T05:16:00;19.20;;;14.77;;
12356;SDS011;6243;51.244;6.774;2023-05-10T05:18:27;18.63;;;14.87;;
12356;SDS011;6243;51.244;6.774;2023-05-10T05:20:52;18.17;;;14.70;;
12356;SDS011;6243;51.244;6.774;2023-05-10T05:23:18;19.90;;;14.60;;
12356;SDS011;6243;51.244;6.774;2023-05-10T05:25:44;16.47;;;14.17;;
12356;SDS011;6243;51.244;6.774;2023-05-10T05:28:10;16.70;;;13.50;;
12356;SDS011;6243;51.244;6.774;2023-05-10T05:30:35;16.67;;;12.80;;
12356;SDS011;6243;51.244;6.774;2023-05-10T05:33:01;15.13;;;13.00;;
12356;SDS011;6243;51.244;6.774;2023-05-10T05:35:26;15.03;;;11.73;;
12356;SDS011;6243;51.244;6.774;2023-05-10T05:37:52;14.53;;;11.70;;
12356;SDS011;6243;51.244;6.774;2023-05-10T05:40:17;19.87;;;11.23;;
12356;SDS011;6243;51.244;6.774;2023-05-10T05:42:44;15.73;;;11.60;;
12356;SDS011;6243;51.244;6.774;2023-05-10T05:45:10;12.50;;;11.20;;
12356;SDS011;6243;51.244;6.774;2023-05-10T05:47:36;14.70;;;11.83;;
12356;SDS011;6243;51.244;6.774;2023-05-10T05:50:01;16.30;;;11.43;;
12356;SDS011;6243;51.244;6.774;2023-05-10T05:52:27;18.50;;;11.87;;
12356;SDS011;6243;51.244;6.774;2023-05-10T05:54:52;16.30;;;12.77;;
12356;SDS011;6243;51.244;6.774;2023-05-10T05:57:18;14.90;;;11.47;;
12356;SDS011;6243;51.244;6.774;2023-05-10T05:59:44;14.37;;;11.43;;
12356;SDS011;6243;51.244;6.774;2023-05-10T06:02:10;16.67;;;12.47;;
12356;SDS011;6243;51.244;6.774;2023-05-10T06:04:35;14.53;;;11.63;;
12356;SDS011;6243;51.244;6.774;2023-05-10T06:07:01;14.40;;;12.57;;
12356;SDS011;6243;51.244;6.774;2023-05-10T06:09:26;14.73;;;12.23;;
12356;SDS011;6243;51.244;6.774;2023-05-10T06:11:52;13.30;;;11.20;;
12356;SDS011;6243;51.244;6.774;2023-05-10T06:14:19;16.23;;;12.23;;
12356;SDS011;6243;51.244;6.774;2023-05-10T06:16:47;15.23;;;11.50;;
12356;SDS011;6243;51.244;6.774;2023-05-10T06:19:12;18.23;;;13.53;;
12356;SDS011;6243;51.244;6.774;2023-05-10T06:21:38;21.40;;;15.03;;
12356;SDS011;6243;51.244;6.774;2023-05-10T06:24:03;20.50;;;16.07;;
12356;SDS011;6243;51.244;6.774;2023-05-10T06:26:30;23.00;;;15.77;;
12356;SDS011;6243;51.244;6.774;2023-05-10T06:28:55;22.67;;;15.53;;
12356;SDS011;6243;51.244;6.774;2023-05-10T06:31:20;20.33;;;15.33;;
12356;SDS011;6243;51.244;6.774;2023-05-10T06:33:47;18.33;;;15.07;;
12356;SDS011;6243;51.244;6.774;2023-05-10T06:36:13;19.83;;;15.80;;
12356;SDS011;6243;51.244;6.774;2023-05-10T06:38:38;20.90;;;15.67;;
12356;SDS011;6243;51.244;6.774;2023-05-10T06:41:04;18.00;;;14.10;;
12356;SDS011;6243;51.244;6.774;2023-05-10T06:43:29;16.73;;;13.43;;
12356;SDS011;6243;51.244;6.774;2023-05-10T06:45:55;20.27;;;14.03;;
12356;SDS011;6243;51.244;6.774;2023-05-10T06:48:20;20.10;;;14.30;;
12356;SDS011;6243;51.244;6.774;2023-05-10T06:50:47;20.33;;;14.00;;
12356;SDS011;6243;51.244;6.774;2023-05-10T06:53:13;18.37;;;13.73;;
12356;SDS011;6243;51.244;6.774;2023-05-10T06:55:38;20.67;;;14.40;;
12356;SDS011;6243;51.244;6.774;2023-05-10T06:58:04;23.23;;;15.50;;
12356;SDS011;6243;51.244;6.774;2023-05-10T07:00:29;21.33;;;15.20;;
12356;SDS011;6243;51.244;6.774;2023-05-10T07:02:55;22.67;;;16.17;;
12356;SDS011;6243;51.244;6.774;2023-05-10T07:05:21;20.10;;;14.67;;
12356;SDS011;6243;51.244;6.774;2023-05-10T07:07:48;22.37;;;16.10;;
12356;SDS011;6243;51.244;6.774;2023-05-10T07:10:13;20.97;;;14.73;;
12356;SDS011;6243;51.244;6.774;2023-05-10T07:12:39;22.53;;;15.87;;
12356;SDS011;6243;51.244;6.774;2023-05-10T07:15:05;19.27;;;15.53;;
12356;SDS011;6243;51.244;6.774;2023-05-10T07:17:31;26.20;;;15.77;;
12356;SDS011;6243;51.244;6.774;2023-05-10T07:19:56;21.30;;;14.93;;
12356;SDS011;6243;51.244;6.774;2023-05-10T07:22:22;19.23;;;13.83;;
12356;SDS011;6243;51.244;6.774;2023-05-10T07:24:49;21.27;;;13.67;;
12356;SDS011;6243;51.244;6.774;2023-05-10T07:27:14;19.30;;;13.60;;
12356;SDS011;6243;51.244;6.774;2023-05-10T07:29:40;19.27;;;13.43;;
12356;SDS011;6243;51.244;6.774;2023-05-10T07:32:06;15.87;;;12.70;;
12356;SDS011;6243;51.244;6.774;2023-05-10T07:34:31;15.73;;;11.63;;
12356;SDS011;6243;51.244;6.774;2023-05-10T07:36:57;16.20;;;11.47;;
12356;SDS011;6243;51.244;6.774;2023-05-10T07:39:24;13.80;;;11.67;;
12356;SDS011;6243;51.244;6.774;2023-05-10T07:41:52;17.33;;;13.40;;
12356;SDS011;6243;51.244;6.774;2023-05-10T07:44:18;27.47;;;15.73;;
12356;SDS011;6243;51.244;6.774;2023-05-10T07:46:44;23.83;;;17.30;;
12356;SDS011;6243;51.244;6.774;2023-05-10T07:49:10;24.47;;;17.00;;
12356;SDS011;6243;51.244;6.774;2023-05-10T07:51:36;24.80;;;18.10;;
12356;SDS011;6243;51.244;6.774;2023-05-10T07:54:02;26.47;;;18.90;;
12356;SDS011;6243;51.244;6.774;2023-05-10T07:56:29;30.30;;;20.73;;
12356;SDS011;6243;51.244;6.774;2023-05-10T07:58:57;34.10;;;22.00;;
12356;SDS011;6243;51.244;6.774;2023-05-10T08:01:23;31.03;;;22.13;;
12356;SDS011;6243;51.244;6.774;2023-05-10T08:03:49;31.50;;;22.00;;
12356;SDS011;6243;51.244;6.774;2023-05-10T08:06:14;32.40;;;22.77;;
12356;SDS011;6243;51.244;6.774;2023-05-10T08:08:41;30.47;;;21.43;;
12356;SDS011;6243;51.244;6.774;2023-05-10T08:11:07;31.07;;;21.70;;
12356;SDS011;6243;51.244;6.774;2023-05-10T08:13:33;31.63;;;21.83;;
12356;SDS011;6243;51.244;6.774;2023-05-10T08:16:00;32.87;;;22.70;;
12356;SDS011;6243;51.244;6.774;2023-05-10T08:18:25;29.20;;;21.63;;
12356;SDS011;6243;51.244;6.774;2023-05-10T08:20:51;34.07;;;23.10;;
12356;SDS011;6243;51.244;6.774;2023-05-10T08:23:17;32.33;;;22.30;;
12356;SDS011;6243;51.244;6.774;2023-05-10T08:25:42;37.13;;;25.60;;
12356;SDS011;6243;51.244;6.774;2023-05-10T08:28:08;35.03;;;24.17;;
12356;SDS011;6243;51.244;6.774;2023-05-10T08:30:33;36.93;;;25.77;;
12356;SDS011;6243;51.244;6.774;2023-05-10T08:33:00;39.73;;;26.00;;
12356;SDS011;6243;51.244;6.774;2023-05-10T08:35:26;34.30;;;24.47;;
12356;SDS011;6243;51.244;6.774;2023-05-10T08:37:52;31.03;;;22.10;;
12356;SDS011;6243;51.244;6.774;2023-05-10T08:40:18;34.07;;;23.33;;
12356;SDS011;6243;51.244;6.774;2023-05-10T08:42:58;29.97;;;22.30;;
12356;SDS011;6243;51.244;6.774;2023-05-10T08:45:29;31.87;;;23.17;;
12356;SDS011;6243;51.244;6.774;2023-05-10T08:47:58;28.77;;;21.43;;
12356;SDS011;6243;51.244;6.774;2023-05-10T08:50:26;26.80;;;20.07;;
12356;SDS011;6243;51.244;6.774;2023-05-10T08:52:52;27.07;;;19.90;;
12356;SDS011;6243;51.244;6.774;2023-05-10T08:55:20;24.60;;;18.27;;
12356;SDS011;6243;51.244;6.774;2023-05-10T08:57:46;22.87;;;17.57;;
12356;SDS011;6243;51.244;6.774;2023-05-10T09:00:12;23.23;;;17.07;;
12356;SDS011;6243;51.244;6.774;2023-05-10T09:02:39;20.43;;;16.30;;
12356;SDS011;6243;51.244;6.774;2023-05-10T09:05:08;21.37;;;16.17;;
12356;SDS011;6243;51.244;6.774;2023-05-10T09:07:33;22.37;;;15.33;;
12356;SDS011;6243;51.244;6.774;2023-05-10T09:09:59;18.93;;;14.77;;
12356;SDS011;6243;51.244;6.774;2023-05-10T09:12:25;19.17;;;14.43;;
12356;SDS011;6243;51.244;6.774;2023-05-10T09:14:52;16.37;;;13.20;;
12356;SDS011;6243;51.244;6.774;2023-05-10T09:17:19;17.27;;;13.43;;
12356;SDS011;6243;51.244;6.774;2023-05-10T09:19:46;16.40;;;13.57;;
12356;SDS011;6243;51.244;6.774;2023-05-10T09:22:13;16.53;;;13.77;;
12356;SDS011;6243;51.244;6.774;2023-05-10T09:24:39;15.90;;;12.73;;
12356;SDS011;6243;51.244;6.774;2023-05-10T09:27:04;16.50;;;13.30;;
12356;SDS011;6243;51.244;6.774;2023-05-10T09:29:38;16.93;;;11.90;;
12356;SDS011;6243;51.244;6.774;2023-05-10T09:32:04;15.73;;;13.43;;
12356;SDS011;6243;51.244;6.774;2023-05-10T09:34:30;16.60;;;12.73;;
12356;SDS011;6243;51.244;6.774;2023-05-10T09:36:57;15.77;;;12.50;;
12356;SDS011;6243;51.244;6.774;2023-05-10T09:39:31;14.57;;;12.07;;
12356;SDS011;6243;51.244;6.774;2023-05-10T09:41:57;13.10;;;11.40;;
12356;SDS011;6243;51.244;6.774;2023-05-10T09:44:23;14.03;;;11.20;;
12356;SDS011;6243;51.244;6.774;2023-05-10T09:46:50;15.70;;;11.63;;
12356;SDS011;6243;51.244;6.774;2023-05-10T09:49:16;14.60;;;10.63;;
12356;SDS011;6243;51.244;6.774;2023-05-10T09:51:42;13.53;;;11.20;;
12356;SDS011;6243;51.244;6.774;2023-05-10T09:54:10;13.23;;;10.80;;
12356;SDS011;6243;51.244;6.774;2023-05-10T09:56:39;11.27;;;10.03;;
12356;SDS011;6243;51.244;6.774;2023-05-10T09:59:04;10.57;;;9.47;;
12356;SDS011;6243;51.244;6.774;2023-05-10T10:01:30;12.13;;;9.97;;
12356;SDS011;6243;51.244;6.774;2023-05-10T10:03:56;12.27;;;10.37;;
12356;SDS011;6243;51.244;6.774;2023-05-10T10:06:22;13.40;;;11.60;;
12356;SDS011;6243;51.244;6.774;2023-05-10T10:08:48;15.37;;;11.43;;
12356;SDS011;6243;51.244;6.774;2023-05-10T10:11:14;14.73;;;11.87;;
12356;SDS011;6243;51.244;6.774;2023-05-10T10:13:41;14.40;;;11.13;;
12356;SDS011;6243;51.244;6.774;2023-05-10T10:16:07;13.67;;;11.63;;
12356;SDS011;6243;51.244;6.774;2023-05-10T10:18:33;15.87;;;11.50;;
12356;SDS011;6243;51.244;6.774;2023-05-10T10:21:01;14.73;;;11.77;;
12356;SDS011;6243;51.244;6.774;2023-05-10T10:23:27;11.97;;;10.50;;
12356;SDS011;6243;51.244;6.774;2023-05-10T10:25:53;16.17;;;12.87;;
12356;SDS011;6243;51.244;6.774;2023-05-10T10:28:23;15.03;;;12.00;;
12356;SDS011;6243;51.244;6.774;2023-05-10T10:30:55;15.37;;;11.60;;
12356;SDS011;6243;51.244;6.774;2023-05-10T10:33:39;14.37;;;11.80;;
12356;SDS011;6243;51.244;6.774;2023-05-10T10:36:16;13.20;;;11.70;;
12356;SDS011;6243;51.244;6.774;2023-05-10T10:38:57;15.07;;;12.00;;
12356;SDS011;6243;51.244;6.774;2023-05-10T10:41:33;13.37;;;11.37;;
12356;SDS011;6243;51.244;6.774;2023-05-10T10:47:02;13.23;;;11.70;;
12356;SDS011;6243;51.244;6.774;2023-05-10T10:49:30;14.53;;;11.27;;
12356;SDS011;6243;51.244;6.774;2023-05-10T10:52:15;12.30;;;10.67;;
12356;SDS011;6243;51.244;6.774;2023-05-10T10:54:49;15.23;;;12.37;;
12356;SDS011;6243;51.244;6.774;2023-05-10T10:57:17;13.80;;;12.30;;
12356;SDS011;6243;51.244;6.774;2023-05-10T10:59:44;16.37;;;12.87;;
12356;SDS011;6243;51.244;6.774;2023-05-10T11:02:11;17.03;;;13.37;;
12356;SDS011;6243;51.244;6.774;2023-05-10T11:10:52;15.30;;;13.60;;
12356;SDS011;6243;51.244;6.774;2023-05-10T11:13:29;17.47;;;14.43;;
12356;SDS011;6243;51.244;6.774;2023-05-10T11:15:56;16.13;;;14.43;;
12356;SDS011;6243;51.244;6.774;2023-05-10T11:18:24;17.10;;;14.03;;
12356;SDS011;6243;51.244;6.774;2023-05-10T11:20:51;16.57;;;13.87;;
12356;SDS011;6243;51.244;6.774;2023-05-10T11:23:17;16.53;;;14.50;;
12356;SDS011;6243;51.244;6.774;2023-05-10T11:25:43;18.03;;;15.77;;
12356;SDS011;6243;51.244;6.774;2023-05-10T11:28:09;17.03;;;15.23;;
12356;SDS011;6243;51.244;6.774;2023-05-10T11:30:35;17.17;;;14.33;;
12356;SDS011;6243;51.244;6.774;2023-05-10T11:33:01;17.67;;;14.60;;
12356;SDS011;6243;51.244;6.774;2023-05-10T11:35:28;14.63;;;13.13;;
12356;SDS011;6243;51.244;6.774;2023-05-10T11:37:54;14.60;;;12.90;;
12356;SDS011;6243;51.244;6.774;2023-05-10T11:40:21;15.03;;;13.47;;
12356;SDS011;6243;51.244;6.774;2023-05-10T11:42:46;14.87;;;12.53;;
12356;SDS011;6243;51.244;6.774;2023-05-10T11:45:12;13.13;;;11.77;;
12356;SDS011;6243;51.244;6.774;2023-05-10T11:47:37;12.27;;;10.70;;
12356;SDS011;6243;51.244;6.774;2023-05-10T11:50:04;12.63;;;11.23;;
12356;SDS011;6243;51.244;6.774;2023-05-10T11:52:36;14.93;;;12.13;;
12356;SDS011;6243;51.244;6.774;2023-05-10T11:55:01;12.23;;;10.93;;
12356;SDS011;6243;51.244;6.774;2023-05-10T11:57:27;13.83;;;12.33;;
12356;SDS011;6243;51.244;6.774;2023-05-10T11:59:53;12.57;;;11.27;;
12356;SDS011;6243;51.244;6.774;2023-05-10T12:02:19;13.57;;;11.60;;
12356;SDS011;6243;51.244;6.774;2023-05-10T12:04:44;13.23;;;11.93;;
12356;SDS011;6243;51.244;6.774;2023-05-10T12:07:10;13.17;;;11.60;;
12356;SDS011;6243;51.244;6.774;2023-05-10T12:09:37;14.53;;;11.73;;
12356;SDS011;6243;51.244;6.774;2023-05-10T12:12:07;12.13;;;10.93;;
12356;SDS011;6243;51.244;6.774;2023-05-10T12:14:33;13.07;;;11.63;;
12356;SDS011;6243;51.244;6.774;2023-05-10T12:16:59;13.17;;;11.77;;
12356;SDS011;6243;51.244;6.774;2023-05-10T12:19:25;15.83;;;12.10;;
12356;SDS011;6243;51.244;6.774;2023-05-10T12:21:50;13.80;;;11.73;;
12356;SDS011;6243;51.244;6.774;2023-05-10T12:24:16;13.47;;;11.40;;
12356;SDS011;6243;51.244;6.774;2023-05-10T12:26:43;13.13;;;11.73;;
12356;SDS011;6243;51.244;6.774;2023-05-10T12:29:14;14.27;;;12.50;;
12356;SDS011;6243;51.244;6.774;2023-05-10T12:31:50;13.57;;;12.17;;
12356;SDS011;6243;51.244;6.774;2023-05-10T12:34:22;14.23;;;12.27;;
12356;SDS011;6243;51.244;6.774;2023-05-10T12:36:50;13.67;;;12.30;;
12356;SDS011;6243;51.244;6.774;2023-05-10T12:39:15;14.30;;;12.80;;
12356;SDS011;6243;51.244;6.774;2023-05-10T12:41:41;14.17;;;12.67;;
12356;SDS011;6243;51.244;6.774;2023-05-10T12:44:08;13.77;;;12.37;;
12356;SDS011;6243;51.244;6.774;2023-05-10T12:46:34;14.07;;;12.70;;
12356;SDS011;6243;51.244;6.774;2023-05-10T12:48:59;14.63;;;12.70;;
12356;SDS011;6243;51.244;6.774;2023-05-10T12:51:25;14.70;;;13.30;;
12356;SDS011;6243;51.244;6.774;2023-05-10T12:53:51;14.57;;;13.07;;
12356;SDS011;6243;51.244;6.774;2023-05-10T12:56:16;15.13;;;13.53;;
12356;SDS011;6243;51.244;6.774;2023-05-10T12:58:42;15.03;;;13.43;;
12356;SDS011;6243;51.244;6.774;2023-05-10T13:01:09;17.40;;;15.40;;
12356;SDS011;6243;51.244;6.774;2023-05-10T13:03:34;15.80;;;14.20;;
12356;SDS011;6243;51.244;6.774;2023-05-10T13:06:00;17.30;;;15.50;;
12356;SDS011;6243;51.244;6.774;2023-05-10T13:08:25;14.63;;;13.03;;
12356;SDS011;6243;51.244;6.774;2023-05-10T13:10:51;17.23;;;14.67;;
12356;SDS011;6243;51.244;6.774;2023-05-10T13:13:17;15.97;;;14.30;;
12356;SDS011;6243;51.244;6.774;2023-05-10T13:15:42;14.47;;;12.67;;
12356;SDS011;6243;51.244;6.774;2023-05-10T13:18:09;15.33;;;13.77;;
12356;SDS011;6243;51.244;6.774;2023-05-10T13:20:35;16.40;;;14.80;;
12356;SDS011;6243;51.244;6.774;2023-05-10T13:23:00;16.33;;;14.67;;
12356;SDS011;6243;51.244;6.774;2023-05-10T13:25:26;17.00;;;15.27;;
12356;SDS011;6243;51.244;6.774;2023-05-10T13:27:52;18.10;;;16.20;;
12356;SDS011;6243;51.244;6.774;2023-05-10T13:30:17;16.60;;;14.70;;
12356;SDS011;6243;51.244;6.774;2023-05-10T13:32:43;15.70;;;14.10;;
12356;SDS011;6243;51.244;6.774;2023-05-10T13:35:10;13.80;;;12.50;;
12356;SDS011;6243;51.244;6.774;2023-05-10T13:37:36;14.00;;;12.53;;
12356;SDS011;6243;51.244;6.774;2023-05-10T13:40:01;14.87;;;13.37;;
12356;SDS011;6243;51.244;6.774;2023-05-10T13:42:27;14.43;;;13.03;;
12356;SDS011;6243;51.244;6.774;2023-05-10T13:44:52;14.87;;;13.37;;
12356;SDS011;6243;51.244;6.774;2023-05-10T13:47:18;13.90;;;12.57;;
12356;SDS011;6243;51.244;6.774;2023-05-10T13:49:43;14.80;;;13.33;;
12356;SDS011;6243;51.244;6.774;2023-05-10T13:52:10;14.80;;;13.30;;
12356;SDS011;6243;51.244;6.774;2023-05-10T13:54:36;14.10;;;12.60;;
12356;SDS011;6243;51.244;6.774;2023-05-10T13:57:02;15.83;;;14.00;;
12356;SDS011;6243;51.244;6.774;2023-05-10T13:59:28;13.33;;;11.93;;
12356;SDS011;6243;51.244;6.774;2023-05-10T14:01:54;14.67;;;13.20;;
12356;SDS011;6243;51.244;6.774;2023-05-10T14:04:19;14.10;;;12.67;;
12356;SDS011;6243;51.244;6.774;2023-05-10T14:06:45;13.57;;;12.17;;
12356;SDS011;6243;51.244;6.774;2023-05-10T14:09:12;13.17;;;11.87;;
12356;SDS011;6243;51.244;6.774;2023-05-10T14:11:37;15.23;;;12.40;;
12356;SDS011;6243;51.244;6.774;2023-05-10T14:14:03;14.73;;;13.03;;
12356;SDS011;6243;51.244;6.774;2023-05-10T14:16:28;12.40;;;11.10;;
12356;SDS011;6243;51.244;6.774;2023-05-10T14:18:54;11.90;;;10.70;;
12356;SDS011;6243;51.244;6.774;2023-05-10T14:21:19;12.47;;;11.23;;
12356;SDS011;6243;51.244;6.774;2023-05-10T14:23:45;13.13;;;11.80;;
12356;SDS011;6243;51.244;6.774;2023-05-10T14:26:12;12.07;;;10.73;;
12356;SDS011;6243;51.244;6.774;2023-05-10T14:28:37;11.10;;;10.00;;
12356;SDS011;6243;51.244;6.774;2023-05-10T14:31:03;9.90;;;8.90;;
12356;SDS011;6243;51.244;6.774;2023-05-10T14:33:28;10.17;;;9.07;;
12356;SDS011;6243;51.244;6.774;2023-05-10T14:35:54;10.73;;;8.73;;
12356;SDS011;6243;51.244;6.774;2023-05-10T14:38:20;10.13;;;8.63;;
12356;SDS011;6243;51.244;6.774;2023-05-10T14:40:45;8.83;;;8.03;;
12356;SDS011;6243;51.244;6.774;2023-05-10T14:43:12;8.93;;;8.03;;
12356;SDS011;6243;51.244;6.774;2023-05-10T14:45:38;9.13;;;8.27;;
12356;SDS011;6243;51.244;6.774;2023-05-10T14:48:04;9.33;;;8.37;;
12356;SDS011;6243;51.244;6.774;2023-05-10T14:50:29;12.53;;;8.37;;
12356;SDS011;6243;51.244;6.774;2023-05-10T14:52:55;9.20;;;8.10;;